• Join FlightAware (Why Join?)
  • Login
  • US Flag 
01:17PM EDT


 

Airport Tracker/Info


-or-


 

Live Flight TrackerFlight Track Log ✈ UAL3776 ✈ 10-Apr-2013 ✈ KIAD - KRDU

Flight Track Log - Related Links

Times and Time Zones

All times are in EDT time to prevent confusion due to time zone crossing. See the UAL3776 flight status page for this flight to view local times or setup timezone preferences in your user account.

Time Position Orientation Groundspeed Altitude Reporting Facility
EDT Latitude Longitude Course Direction KTS MPH feet Rate Location/Type
04:06PM 38.9500 -77.5000 195° South 172 198 1,300  Level Potomac TRACON
04:07PM 38.9000 -77.5167 195° South 222 255 2,900 2,100 Climbing Potomac TRACON
04:08PM 38.8167 -77.5167 180° South 257 296 5,500 2,760 Climbing Potomac TRACON
04:09PM 38.7500 -77.5167 180° South 285 328 8,500 2,580 Climbing Potomac TRACON
04:11PM 38.6667 -77.5000 171° South 296 341 10,800 1,140 Climbing Potomac TRACON
04:12PM 38.5667 -77.5000 180° South 326 375 10,900 60 Climbing Potomac TRACON
04:12PM 38.5169 -77.4889 170° South 335 386 11,000 1,140 Climbing Washington Center
04:13PM 38.4253 -77.4761 174° South 346 398 12,900 900 Climbing Washington Center
04:14PM 38.3394 -77.5003 192° South 346 398 12,900 840 Level Washington Center
04:15PM 38.3022 -77.6078 246° West 277 319 14,600 1,740 Climbing Washington Center
04:16PM 38.2531 -77.6886 232° Southwest 312 359 16,400 1,140 Climbing Washington Center
04:17PM 38.1619 -77.7678 214° Southwest 349 402 16,900 300 Climbing Washington Center
04:18PM 38.0814 -77.8367 214° Southwest 393 452 17,000 420 Climbing Washington Center
04:19PM 37.9861 -77.9156 213° Southwest 407 468 17,800 1,260 Climbing Washington Center
04:20PM 37.8947 -77.9969 215° Southwest 407 468 19,600 1,740 Climbing Washington Center
04:21PM 37.7992 -78.0781 214° Southwest 407 468 21,300 1,200 Climbing Washington Center
04:22PM 37.7017 -78.1589 213° Southwest 412 474 22,000 300 Climbing Washington Center
04:23PM 37.5953 -78.2522 215° Southwest 420 483 22,000  Level Washington Center
04:24PM 37.5058 -78.3275 214° Southwest 428 493 22,000  Level Washington Center
04:25PM 37.4081 -78.4078 213° Southwest 433 498 22,000  Level Washington Center
04:26PM 37.3103 -78.4903 214° Southwest 433 498 22,000  Level Washington Center
04:27PM 37.2103 -78.5700 212° Southwest 433 498 22,000  Level Washington Center
04:28PM 37.1036 -78.6594 214° Southwest 433 498 22,000 -600 Level Washington Center
04:29PM 37.0056 -78.7417 214° Southwest 433 498 20,900 -1,320 Descending Washington Center
04:30PM 36.9117 -78.8183 213° Southwest 428 493 19,400 -1,500 Descending Washington Center
04:31PM 36.8219 -78.8922 213° Southwest 415 478 18,000 -1,500 Descending Washington Center
04:32PM 36.7453 -78.9539 213° Southwest 388 447 16,400 -1,800 Descending Washington Center
04:33PM 36.6539 -79.0147 208° Southwest 368 423 14,400 -2,040 Descending Washington Center
04:34PM 36.6167 -79.0000 162° South 339 390 13,700 -2,040 Descending Washington Center
04:34PM 36.5919 -78.9939 169° South 336 387 13,100 -1,980 Descending Washington Center
04:34PM 36.5692 -78.9825 158° South 325 374 12,400 -2,040 Descending Washington Center
04:35PM 36.4781 -78.9631 170° South 330 380 10,400 -1,380 Descending Washington Center
04:36PM 36.4017 -78.9339 163° South 315 362 10,000 -600 Descending Washington Center
04:36PM 36.3892 -78.9256 152° Southeast 324 373 9,800 -1,680 Descending Washington Center
04:37PM 36.3364 -78.8794 145° Southeast 285 328 8,300 -960 Descending Washington Center
04:38PM 36.2753 -78.8253 144° Southeast 271 312 8,100 -480 Descending Washington Center
04:39PM 36.2100 -78.7661 144° Southeast 285 328 7,400 -1,020 Descending Washington Center
04:40PM 36.1467 -78.7094 144° Southeast 280 322 6,100 -1,200 Descending Washington Center
04:41PM 36.0850 -78.6789 158° South 251 289 5,100 -1,200 Descending Washington Center
04:41PM 36.0686 -78.6678 151° Southeast 263 303 4,700 -1,980 Descending Washington Center
04:42PM 36.0189 -78.6583 171° South 256 295 3,100 -2,040 Descending Washington Center
04:42PM 35.9997 -78.6625 190° South 244 281 2,700 -840 Descending Washington Center
04:43PM 35.9572 -78.6994 215° Southwest 182 209 2,100 -600 Descending Washington Center
04:44PM 35.9269 -78.7394 227° Southwest 118 136 1,500 -720 Descending Washington Center
04:45PM 35.9056 -78.7617 220° Southwest 123 142 900 -840 Descending Washington Center
04:47PM 35.8776 -78.7875 219° Southwest  Level Estimated
04:54PM 35.8776 -78.7875 219° Southwest  Level Estimated